Time;durP1;ratioP1;P1;durP2;ratioP2;P2;SDS_P1;SDS_P2;PMS_P1;PMS_P2;Temp;Humidity;BMP_temperature;BMP_pressure;BME280_temperature;BME280_humidity;BME280_pressure;Samples;Min_cycle;Max_cycle;Signal;HPM_P1;HPM_P2
2023/04/27 00:01:12;;;;;;;;;11.67;8.67;;;;;-150.52;100.00;63513.88;2001901;28;3487731;-75
2023/04/27 00:02:24;;;;;;;;;11.25;9.00;;;;;-150.52;100.00;63513.88;2039986;28;1838844;-75
2023/04/27 00:03:34;;;;;;;;;13.50;10.00;;;;;-150.52;100.00;63513.88;2028218;27;2787775;-75
2023/04/27 00:04:45;;;;;;;;;10.00;9.00;;;;;-150.52;100.00;63513.88;2050092;27;2754408;-75
2023/04/27 00:05:56;;;;;;;;;8.33;7.00;;;;;-150.52;100.00;63513.88;2041893;27;3450237;-75
2023/04/27 00:07:07;;;;;;;;;12.00;9.00;;;;;-150.52;100.00;63513.88;2047122;27;2763794;-74
2023/04/27 00:08:18;;;;;;;;;11.00;9.00;;;;;-150.52;100.00;63513.88;2026855;28;2772139;-75
2023/04/27 00:09:29;;;;;;;;;11.00;10.00;;;;;-150.52;100.00;63513.88;2047532;27;2777345;-75
2023/04/27 00:10:40;;;;;;;;;9.00;8.00;;;;;-150.52;100.00;63513.88;2038243;28;2758139;-74
2023/04/27 00:11:51;;;;;;;;;11.50;11.00;;;;;-150.52;100.00;63513.88;2041964;27;2788825;-74
2023/04/27 00:13:02;;;;;;;;;9.67;8.00;;;;;-150.52;100.00;63513.88;2016678;27;3466876;-75
2023/04/27 00:14:14;;;;;;;;;10.00;8.00;;;;;-150.52;100.00;63513.88;2044681;27;1816960;-74
2023/04/27 00:15:24;;;;;;;;;9.00;9.00;;;;;-150.52;100.00;63513.88;2023392;28;2748272;-75
2023/04/27 00:16:36;;;;;;;;;9.25;7.50;;;;;-150.52;100.00;63513.88;2059596;27;1818509;-74
2023/04/27 00:17:47;;;;;;;;;7.00;7.00;;;;;-150.52;100.00;63513.88;2033381;27;2741955;-75
2023/04/27 00:18:58;;;;;;;;;11.00;8.00;;;;;-150.52;100.00;63513.88;2053296;28;1833740;-74
2023/04/27 00:20:10;;;;;;;;;10.00;8.67;;;;;-150.52;100.00;63513.88;2010174;28;3478357;-75
2023/04/27 00:21:21;;;;;;;;;7.33;7.33;;;;;-150.52;100.00;63513.88;2044271;27;1831515;-74
2023/04/27 00:22:32;;;;;;;;;11.50;10.00;;;;;-150.52;100.00;63513.88;2026305;27;2788832;-75
2023/04/27 00:23:43;;;;;;;;;13.50;12.00;;;;;-150.52;100.00;63513.88;2048752;27;2785700;-74
2023/04/27 00:24:54;;;;;;;;;13.33;9.00;;;;;-150.52;100.00;63513.88;2012821;27;3500257;-75
2023/04/27 00:26:05;;;;;;;;;8.50;8.50;;;;;-150.52;100.00;63513.88;2047306;27;2753389;-75
2023/04/27 00:27:16;;;;;;;;;9.00;9.00;;;;;-150.52;100.00;63513.88;2040112;27;2747577;-75
2023/04/27 00:28:27;;;;;;;;;8.67;8.67;;;;;-150.52;100.00;63513.88;2044702;27;3464847;-75
2023/04/27 00:29:41;;;;;;;;;16.50;10.00;;;;;-150.52;100.00;63513.88;2047249;27;2802330;-75
2023/04/27 00:30:55;;;;;;;;;13.00;9.67;;;;;-150.52;100.00;63513.88;2033404;27;1821204;-75
2023/04/27 00:32:06;;;;;;;;;12.67;10.00;;;;;-150.52;100.00;63513.88;2010248;27;3505458;-75
2023/04/27 00:33:17;;;;;;;;;13.50;9.50;;;;;-150.52;100.00;63513.88;2031295;27;2787815;-75
2023/04/27 00:34:27;;;;;;;;;13.00;12.00;;;;;-150.52;100.00;63513.88;2012419;28;2785667;-75
2023/04/27 00:35:38;;;;;;;;;8.00;8.00;;;;;-150.52;100.00;63513.88;2041004;27;2738878;-75
2023/04/27 00:36:49;;;;;;;;;10.00;9.00;;;;;-150.52;100.00;63513.88;2048189;27;2764828;-74
2023/04/27 00:38:00;;;;;;;;;9.67;9.00;;;;;-150.52;100.00;63513.88;2063148;27;1846131;-74
2023/04/27 00:39:11;;;;;;;;;9.50;8.50;;;;;-150.52;100.00;63513.88;2009346;27;2758614;-75
2023/04/27 00:40:22;;;;;;;;;9.67;8.67;;;;;-150.52;100.00;63513.88;2040644;28;3467921;-75
2023/04/27 00:41:40;;;;;;;;;12.00;11.00;;;;;-150.52;100.00;63513.88;2056242;27;1842400;-75
2023/04/27 00:42:50;;;;;;;;;8.00;8.00;;;;;-150.52;100.00;63513.88;2033124;27;2741987;-75
2023/04/27 00:44:02;;;;;;;;;10.80;9.60;;;;;-150.52;100.00;63513.88;2055768;27;1831528;-75
2023/04/27 00:45:13;;;;;;;;;14.00;11.00;;;;;-150.52;100.00;63513.88;2025146;27;2791926;-75
2023/04/27 00:46:26;;;;;;;;;8.40;7.60;;;;;-150.52;100.00;63513.88;2062091;27;1819048;-74
2023/04/27 00:47:38;;;;;;;;;14.25;13.25;;;;;-150.52;100.00;63513.88;2042733;27;1852431;-75
2023/04/27 00:48:48;;;;;;;;;9.00;7.50;;;;;-150.52;100.00;63513.88;2033340;27;2739864;-75
2023/04/27 00:49:59;;;;;;;;;15.25;11.50;;;;;-150.52;100.00;63513.88;2058745;27;1821143;-75
2023/04/27 00:51:13;;;;;;;;;9.50;9.17;;;;;-150.52;100.00;63513.88;2026015;28;1819692;-75
2023/04/27 00:52:24;;;;;;;;;12.50;9.50;;;;;-150.52;100.00;63513.88;1994686;28;2777379;-75
2023/04/27 00:53:36;;;;;;;;;8.50;7.50;;;;;-150.52;100.00;63513.88;2030883;27;2743001;-75
2023/04/27 00:54:49;;;;;;;;;8.50;8.50;;;;;-150.52;100.00;63513.88;2018970;28;2749212;-75
2023/04/27 00:56:00;;;;;;;;;8.50;7.00;;;;;-150.52;100.00;63513.88;2017703;28;2741939;-75
2023/04/27 00:57:11;;;;;;;;;9.00;9.00;;;;;-150.52;100.00;63513.88;2047930;28;1821136;-74
2023/04/27 00:58:21;;;;;;;;;9.50;8.00;;;;;-150.52;100.00;63513.88;2001913;27;2751342;-75
2023/04/27 00:59:32;;;;;;;;;12.50;11.50;;;;;-150.52;100.00;63513.88;2046254;27;2785763;-75
2023/04/27 01:00:44;;;;;;;;;10.50;8.50;;;;;-150.52;100.00;63513.88;2031939;27;1825290;-75
2023/04/27 01:01:55;;;;;;;;;9.00;8.33;;;;;-150.52;100.00;63513.88;2028232;27;2747194;-75
2023/04/27 01:03:08;;;;;;;;;12.17;10.17;;;;;-150.52;100.00;63513.88;2044088;28;1825353;-75
2023/04/27 01:04:19;;;;;;;;;9.50;9.50;;;;;-150.52;100.00;63513.88;2016558;28;2761737;-75
2023/04/27 01:05:30;;;;;;;;;9.67;9.33;;;;;-150.52;100.00;63513.88;2062186;27;1837343;-75
2023/04/27 01:06:40;;;;;;;;;13.50;8.50;;;;;-150.52;100.00;63513.88;2009749;27;2765864;-75
2023/04/27 01:07:51;;;;;;;;;8.00;7.67;;;;;-150.52;100.00;63513.88;2042992;27;1825852;-75
2023/04/27 01:09:04;;;;;;;;;12.00;9.00;;;;;-150.52;100.00;63513.88;2001280;28;2763815;-75
2023/04/27 01:10:14;;;;;;;;;10.00;9.50;;;;;-150.52;100.00;63513.88;2025303;27;2775775;-75
2023/04/27 01:11:25;;;;;;;;;10.00;9.00;;;;;-150.52;100.00;63513.88;2043293;27;2765929;-75
2023/04/27 01:12:36;;;;;;;;;9.00;9.00;;;;;-150.52;100.00;63513.88;2041943;27;2746070;-75
2023/04/27 01:13:47;;;;;;;;;11.50;8.50;;;;;-150.52;100.00;63513.88;2045887;27;2764868;-75
2023/04/27 01:14:58;;;;;;;;;8.50;8.00;;;;;-150.52;100.00;63513.88;2063887;27;1819005;-75
2023/04/27 01:16:09;;;;;;;;;14.00;10.00;;;;;-150.52;100.00;63513.88;2009856;27;2783565;-75
2023/04/27 01:17:20;;;;;;;;;10.00;9.00;;;;;-150.52;100.00;63513.88;2027554;27;3481485;-75
2023/04/27 01:18:32;;;;;;;;;8.25;8.00;;;;;-150.52;100.00;63513.88;2049611;27;1842002;-75
2023/04/27 01:19:43;;;;;;;;;8.33;7.00;;;;;-150.52;100.00;63513.88;2034929;27;2733689;-75
2023/04/27 01:20:54;;;;;;;;;7.33;7.33;;;;;-150.52;100.00;63513.88;2034268;27;3449192;-75
2023/04/27 01:22:06;;;;;;;;;10.33;9.33;;;;;-150.52;100.00;63513.88;2031787;27;3496113;-75
2023/04/27 01:23:16;;;;;;;;;8.00;7.33;;;;;-150.52;100.00;63513.88;2034921;27;3446428;-75
2023/04/27 01:24:27;;;;;;;;;9.00;8.50;;;;;-150.52;100.00;63513.88;2045599;27;2756876;-75
2023/04/27 01:25:38;;;;;;;;;13.00;10.67;;;;;-150.52;100.00;63513.88;2041421;28;3500227;-75
2023/04/27 01:26:51;;;;;;;;;12.67;9.33;;;;;-150.52;100.00;63513.88;2064574;27;1841393;-75
2023/04/27 01:28:01;;;;;;;;;12.00;10.00;;;;;-150.52;100.00;63513.88;2009997;27;2774237;-75
2023/04/27 01:29:12;;;;;;;;;11.00;8.00;;;;;-150.52;100.00;63513.88;2064644;27;1821216;-75
2023/04/27 01:30:23;;;;;;;;;12.50;12.50;;;;;-150.52;100.00;63513.88;2002321;27;2786733;-75
2023/04/27 01:31:35;;;;;;;;;9.00;8.00;;;;;-150.52;100.00;63513.88;2055492;27;2730446;-75
2023/04/27 01:32:45;;;;;;;;;13.00;9.50;;;;;-150.52;100.00;63513.88;2025053;28;2777324;-74
2023/04/27 01:33:56;;;;;;;;;14.50;8.50;;;;;-150.52;100.00;63513.88;2018752;27;2773173;-75
2023/04/27 01:35:07;;;;;;;;;11.50;9.00;;;;;-150.52;100.00;63513.88;2048884;27;2761680;-75
2023/04/27 01:36:18;;;;;;;;;12.50;9.50;;;;;-150.52;100.00;63513.88;2027580;27;2779505;-75
2023/04/27 01:37:30;;;;;;;;;12.00;7.50;;;;;-150.52;100.00;63513.88;2047539;27;2757524;-75
2023/04/27 01:38:41;;;;;;;;;9.50;8.00;;;;;-150.52;100.00;63513.88;2024224;28;2754474;-74
2023/04/27 01:39:52;;;;;;;;;12.75;11.25;;;;;-150.52;100.00;63513.88;2037807;27;1834631;-75
2023/04/27 01:41:04;;;;;;;;;9.25;9.25;;;;;-150.52;100.00;63513.88;2047649;27;1829516;-75
2023/04/27 01:42:15;;;;;;;;;9.00;9.00;;;;;-150.52;100.00;63513.88;2033618;27;3458558;-75
2023/04/27 01:43:27;;;;;;;;;9.00;8.50;;;;;-150.52;100.00;63513.88;2024273;28;2744012;-75
2023/04/27 01:44:37;;;;;;;;;12.00;10.00;;;;;-150.52;100.00;63513.88;2023298;27;2787755;-75
2023/04/27 01:45:48;;;;;;;;;14.00;9.33;;;;;-150.52;100.00;63513.88;2043860;27;3490860;-75
2023/04/27 01:46:59;;;;;;;;;8.33;8.33;;;;;-150.52;100.00;63513.88;2066589;27;1825270;-75
2023/04/27 01:48:10;;;;;;;;;10.33;8.33;;;;;-150.52;100.00;63513.88;2009463;27;3472126;-75
2023/04/27 01:49:21;;;;;;;;;10.25;9.50;;;;;-150.52;100.00;63513.88;2040565;27;1841383;-75
2023/04/27 01:50:33;;;;;;;;;12.75;10.50;;;;;-150.52;100.00;63513.88;2038249;28;1839915;-75
2023/04/27 01:51:44;;;;;;;;;9.00;9.00;;;;;-150.52;100.00;63513.88;2034460;27;2754850;-75
2023/04/27 01:52:54;;;;;;;;;11.50;9.00;;;;;-150.52;100.00;63513.88;2051368;27;2767269;-75
2023/04/27 01:54:05;;;;;;;;;10.00;9.50;;;;;-150.52;100.00;63513.88;2048229;27;2772146;-74
2023/04/27 01:55:17;;;;;;;;;12.80;9.80;;;;;-150.52;100.00;63513.88;2059772;27;1829491;-75
2023/04/27 01:56:29;;;;;;;;;10.00;10.00;;;;;-150.52;100.00;63513.88;2030461;27;2785637;-75
2023/04/27 01:57:39;;;;;;;;;11.50;9.00;;;;;-150.52;100.00;63513.88;2022748;28;2772642;-75
2023/04/27 01:58:51;;;;;;;;;7.00;7.00;;;;;-150.52;100.00;63513.88;2041861;27;2744035;-75
2023/04/27 02:00:04;;;;;;;;;15.00;9.00;;;;;-150.52;100.00;63513.88;2030777;27;2771094;-75
2023/04/27 02:01:14;;;;;;;;;9.00;9.00;;;;;-150.52;100.00;63513.88;2030808;27;2740922;-75
2023/04/27 02:02:25;;;;;;;;;19.25;13.25;;;;;-150.52;100.00;63513.88;2058518;27;1830536;-75
2023/04/27 02:03:36;;;;;;;;;10.50;9.50;;;;;-150.52;100.00;63513.88;2006128;27;2779419;-74
2023/04/27 02:04:47;;;;;;;;;13.50;9.00;;;;;-150.52;100.00;63513.88;2050671;27;2768978;-75
2023/04/27 02:05:58;;;;;;;;;12.40;10.00;;;;;-150.52;100.00;63513.88;2062987;27;1825274;-75
2023/04/27 02:07:09;;;;;;;;;10.67;9.00;;;;;-150.52;100.00;63513.88;2033615;27;3477334;-75
2023/04/27 02:08:20;;;;;;;;;12.00;11.50;;;;;-150.52;100.00;63513.88;2035171;27;2789847;-75
2023/04/27 02:09:31;;;;;;;;;10.00;9.00;;;;;-150.52;100.00;63513.88;2050835;27;2760678;-75
2023/04/27 02:10:42;;;;;;;;;14.00;9.50;;;;;-150.52;100.00;63513.88;2036273;28;2781501;-75
2023/04/27 02:11:53;;;;;;;;;10.00;8.67;;;;;-150.52;100.00;63513.88;2014870;28;3474199;-75
2023/04/27 02:13:05;;;;;;;;;13.25;8.00;;;;;-150.52;100.00;63513.88;2046169;28;1829439;-75
2023/04/27 02:14:16;;;;;;;;;10.25;9.00;;;;;-150.52;100.00;63513.88;2046526;27;1829487;-75
2023/04/27 02:15:27;;;;;;;;;7.67;6.67;;;;;-150.52;100.00;63513.88;2023805;28;3455445;-75
2023/04/27 02:16:37;;;;;;;;;9.50;8.00;;;;;-150.52;100.00;63513.88;2034422;27;2752367;-75
2023/04/27 02:17:49;;;;;;;;;8.50;8.50;;;;;-150.52;100.00;63513.88;2062838;27;1825393;-75
2023/04/27 02:19:00;;;;;;;;;13.00;9.50;;;;;-150.52;100.00;63513.88;2031604;27;2774175;-75
2023/04/27 02:20:11;;;;;;;;;10.00;9.50;;;;;-150.52;100.00;63513.88;2013256;27;2783577;-75
2023/04/27 02:21:22;;;;;;;;;14.00;9.50;;;;;-150.52;100.00;63513.88;2047156;27;2769517;-75
2023/04/27 02:22:33;;;;;;;;;14.50;9.00;;;;;-150.52;100.00;63513.88;2018746;27;2771070;-75
2023/04/27 02:23:44;;;;;;;;;10.00;9.50;;;;;-150.52;100.00;63513.88;2022268;27;2773195;-75
2023/04/27 02:24:56;;;;;;;;;15.00;12.60;;;;;-150.52;100.00;63513.88;2029949;27;1826324;-75
2023/04/27 02:26:06;;;;;;;;;11.00;10.67;;;;;-150.52;100.00;63513.88;2014496;28;3492943;-75
2023/04/27 02:27:17;;;;;;;;;6.00;5.50;;;;;-150.52;100.00;63513.88;2040695;27;2736727;-75
2023/04/27 02:28:29;;;;;;;;;15.20;12.40;;;;;-150.52;100.00;63513.88;2061464;27;1819096;-74
2023/04/27 02:29:43;;;;;;;;;11.86;11.86;;;;;-150.52;100.00;63513.88;2054418;28;1829417;-75
2023/04/27 02:30:54;;;;;;;;;10.00;10.00;;;;;-150.52;100.00;63513.88;2018649;27;2774585;-75
2023/04/27 02:32:05;;;;;;;;;14.00;13.50;;;;;-150.52;100.00;63513.88;2043735;28;2784650;-75
2023/04/27 02:33:16;;;;;;;;;15.25;12.00;;;;;-150.52;100.00;63513.88;2045254;27;2800652;-75
2023/04/27 02:34:27;;;;;;;;;12.50;12.00;;;;;-150.52;100.00;63513.88;2017253;28;2797110;-75
2023/04/27 02:35:38;;;;;;;;;12.00;11.50;;;;;-150.52;100.00;63513.88;2009160;28;2787760;-75
2023/04/27 02:36:49;;;;;;;;;12.00;10.00;;;;;-150.52;100.00;63513.88;2010332;27;2788766;-75
2023/04/27 02:38:00;;;;;;;;;13.50;13.50;;;;;-150.52;100.00;63513.88;2025439;27;2798179;-75
2023/04/27 02:39:11;;;;;;;;;14.25;12.00;;;;;-150.52;100.00;63513.88;2028040;28;1821681;-74
2023/04/27 02:40:22;;;;;;;;;13.25;12.00;;;;;-150.52;100.00;63513.88;2005879;28;1848868;-75
2023/04/27 02:41:33;;;;;;;;;14.50;13.00;;;;;-150.52;100.00;63513.88;2041755;28;2794038;-75
2023/04/27 02:42:45;;;;;;;;;13.00;10.50;;;;;-150.52;100.00;63513.88;2026387;27;2792986;-75
2023/04/27 02:43:56;;;;;;;;;17.00;13.33;;;;;-150.52;100.00;63513.88;2017969;28;3537733;-75
2023/04/27 02:45:08;;;;;;;;;15.00;13.00;;;;;-150.52;100.00;63513.88;2041664;27;2798171;-75
2023/04/27 02:46:18;;;;;;;;;17.00;15.50;;;;;-150.52;100.00;63513.88;2039760;27;2813792;-75
2023/04/27 02:47:30;;;;;;;;;14.20;13.80;;;;;-150.52;100.00;63513.88;2036407;27;1821586;-75
2023/04/27 02:48:44;;;;;;;;;15.14;13.00;;;;;-150.52;100.00;63513.88;2049417;28;1829999;-75
2023/04/27 02:49:58;;;;;;;;;14.00;12.83;;;;;-150.52;100.00;63513.88;2040207;28;1833727;-75
2023/04/27 02:51:08;;;;;;;;;15.00;13.00;;;;;-150.52;100.00;63513.88;1997227;27;2788812;-75
2023/04/27 02:52:20;;;;;;;;;13.50;11.75;;;;;-150.52;100.00;63513.88;2035246;27;1822132;-75
2023/04/27 02:53:33;;;;;;;;;13.50;11.67;;;;;-150.52;100.00;63513.88;2040720;27;1829469;-75
2023/04/27 02:54:44;;;;;;;;;18.33;14.67;;;;;-150.52;100.00;63513.88;2008333;27;2808687;-75
2023/04/27 02:55:55;;;;;;;;;13.00;12.00;;;;;-150.52;100.00;63513.88;2023373;28;2785139;-75
2023/04/27 02:57:07;;;;;;;;;15.00;11.83;;;;;-150.52;100.00;63513.88;2035295;27;1827389;-75
2023/04/27 02:58:19;;;;;;;;;14.67;12.33;;;;;-150.52;100.00;63513.88;2031297;27;2788784;-75
2023/04/27 02:59:29;;;;;;;;;12.00;12.00;;;;;-150.52;100.00;63513.88;2027847;27;2789874;-75
2023/04/27 03:00:42;;;;;;;;;17.20;13.40;;;;;-150.52;100.00;63513.88;2033104;27;1835694;-74
2023/04/27 03:01:52;;;;;;;;;13.00;10.50;;;;;-150.52;100.00;63513.88;2024483;27;2791898;-75
2023/04/27 03:03:03;;;;;;;;;12.50;12.50;;;;;-150.52;100.00;63513.88;2023622;27;2809708;-75
2023/04/27 03:04:15;;;;;;;;;15.00;13.00;;;;;-150.52;100.00;63513.88;2015076;28;2790868;-74
2023/04/27 03:05:27;;;;;;;;;16.00;13.50;;;;;-150.52;100.00;63513.88;2003960;27;2803392;-75
2023/04/27 03:06:38;;;;;;;;;13.50;13.00;;;;;-150.52;100.00;63513.88;2007789;27;2786702;-75
2023/04/27 03:07:49;;;;;;;;;13.50;12.00;;;;;-150.52;100.00;63513.88;2034393;27;2781513;-75
2023/04/27 03:09:00;;;;;;;;;11.50;10.00;;;;;-150.52;100.00;63513.88;2044321;27;2784638;-75
2023/04/27 03:10:11;;;;;;;;;16.50;14.00;;;;;-150.52;100.00;63513.88;2026101;27;2802313;-75
2023/04/27 03:11:23;;;;;;;;;17.80;12.80;;;;;-150.52;100.00;63513.88;2060870;27;1831556;-75
2023/04/27 03:12:33;;;;;;;;;17.50;14.50;;;;;-150.52;100.00;63513.88;2027961;27;2807566;-75
2023/04/27 03:13:45;;;;;;;;;13.00;13.00;;;;;-150.52;100.00;63513.88;1999668;28;2789826;-75
2023/04/27 03:14:55;;;;;;;;;14.00;12.00;;;;;-150.52;100.00;63513.88;2003195;27;2791930;-74
2023/04/27 03:16:13;;;;;;;;;14.00;14.00;;;;;-150.52;100.00;63513.88;2051084;27;2794044;-75
2023/04/27 03:17:24;;;;;;;;;17.00;14.50;;;;;-150.52;100.00;63513.88;2009326;27;2820050;-75
2023/04/27 03:18:35;;;;;;;;;14.00;11.50;;;;;-150.52;100.00;63513.88;2018899;27;2791920;-75
2023/04/27 03:19:48;;;;;;;;;15.67;14.00;;;;;-150.52;100.00;63513.88;2024284;27;2804804;-75
2023/04/27 03:21:08;;;;;;;;;15.67;10.33;;;;;-150.52;100.00;63513.88;2062827;27;1826414;-75
2023/04/27 03:22:19;;;;;;;;;21.50;14.50;;;;;-150.52;100.00;63513.88;2007633;27;2825262;-75
2023/04/27 03:23:30;;;;;;;;;18.00;13.00;;;;;-150.52;100.00;63513.88;2018094;27;2811696;-75
2023/04/27 03:24:42;;;;;;;;;17.33;15.00;;;;;-150.52;100.00;63513.88;2019992;27;2813922;-74
2023/04/27 03:25:53;;;;;;;;;17.50;13.50;;;;;-150.52;100.00;63513.88;2023828;28;2809654;-75
2023/04/27 03:27:04;;;;;;;;;15.00;12.25;;;;;-150.52;100.00;63513.88;2026912;27;1825351;-75
2023/04/27 03:28:18;;;;;;;;;18.29;15.29;;;;;-150.52;100.00;63513.88;2030332;28;1839866;-75
2023/04/27 03:29:29;;;;;;;;;17.00;15.00;;;;;-150.52;100.00;63513.88;2023546;27;3538114;-74
2023/04/27 03:30:40;;;;;;;;;13.00;11.50;;;;;-150.52;100.00;63513.88;2060074;27;1835832;-74
2023/04/27 03:31:51;;;;;;;;;12.00;11.00;;;;;-150.52;100.00;63513.88;2009121;27;2787759;-75
2023/04/27 03:33:02;;;;;;;;;14.40;12.00;;;;;-150.52;100.00;63513.88;2020400;28;1831574;-74
2023/04/27 03:34:14;;;;;;;;;13.67;12.00;;;;;-150.52;100.00;63513.88;2008938;28;2787715;-75
2023/04/27 03:35:25;;;;;;;;;14.00;14.00;;;;;-150.52;100.00;63513.88;2022298;27;2792979;-75
2023/04/27 03:36:36;;;;;;;;;14.33;14.00;;;;;-150.52;100.00;63513.88;2008552;27;3532506;-75
2023/04/27 03:37:47;;;;;;;;;15.50;13.00;;;;;-150.52;100.00;63513.88;2044601;27;2794077;-74
2023/04/27 03:38:58;;;;;;;;;18.00;15.00;;;;;-150.52;100.00;63513.88;2010687;28;2812719;-74
2023/04/27 03:40:13;;;;;;;;;15.33;13.17;;;;;-150.52;100.00;63513.88;2027360;27;2804409;-75
2023/04/27 03:41:23;;;;;;;;;15.00;15.00;;;;;-150.52;100.00;63513.88;2006281;27;2795007;-75
2023/04/27 03:42:34;;;;;;;;;14.00;12.00;;;;;-150.52;100.00;63513.88;2047831;27;2800270;-75
2023/04/27 03:43:46;;;;;;;;;11.80;11.20;;;;;-150.52;100.00;63513.88;2028238;27;1837834;-74
2023/04/27 03:44:57;;;;;;;;;14.33;14.33;;;;;-150.52;100.00;63513.88;2007665;27;2799221;-75
2023/04/27 03:46:11;;;;;;;;;18.43;16.86;;;;;-150.52;100.00;63513.88;2060958;27;1831577;-74
2023/04/27 03:47:23;;;;;;;;;18.33;15.33;;;;;-150.52;100.00;63513.88;2031730;27;3556471;-74
2023/04/27 03:48:35;;;;;;;;;16.33;14.67;;;;;-150.52;100.00;63513.88;2047317;27;3534640;-75
2023/04/27 03:49:46;;;;;;;;;20.20;16.40;;;;;-150.52;100.00;63513.88;2042420;27;3565822;-74
2023/04/27 03:51:00;;;;;;;;;15.33;13.33;;;;;-150.52;100.00;63513.88;2039935;28;2803933;-74
2023/04/27 03:52:11;;;;;;;;;18.67;14.00;;;;;-150.52;100.00;63513.88;2024372;27;2808693;-75
2023/04/27 03:53:21;;;;;;;;;16.00;12.50;;;;;-150.52;100.00;63513.88;2031749;27;2810687;-75
2023/04/27 03:54:32;;;;;;;;;19.00;13.00;;;;;-150.52;100.00;63513.88;2013094;28;2797099;-75
2023/04/27 03:55:44;;;;;;;;;16.50;13.75;;;;;-150.52;100.00;63513.88;2021475;28;1833716;-75
2023/04/27 03:56:54;;;;;;;;;20.50;15.50;;;;;-150.52;100.00;63513.88;2010149;27;2834679;-75
2023/04/27 03:58:05;;;;;;;;;14.50;13.00;;;;;-150.52;100.00;63513.88;2038307;27;2794013;-75
2023/04/27 03:59:17;;;;;;;;;18.50;15.50;;;;;-150.52;100.00;63513.88;2011616;27;2811740;-75
2023/04/27 04:00:28;;;;;;;;;17.00;12.00;;;;;-150.52;100.00;63513.88;2005980;28;2813799;-75
2023/04/27 04:01:40;;;;;;;;;13.00;11.50;;;;;-150.52;100.00;63513.88;2023000;27;2798652;-74
2023/04/27 04:02:51;;;;;;;;;18.00;16.33;;;;;-150.52;100.00;63513.88;2006554;27;2816928;-75
2023/04/27 04:04:02;;;;;;;;;18.33;16.67;;;;;-150.52;100.00;63513.88;2027482;27;2824326;-75
2023/04/27 04:05:16;;;;;;;;;14.50;13.00;;;;;-150.52;100.00;63513.88;2026371;27;2804425;-75
2023/04/27 04:06:27;;;;;;;;;14.00;14.00;;;;;-150.52;100.00;63513.88;2009038;27;3540930;-74
2023/04/27 04:07:43;;;;;;;;;22.00;16.33;;;;;-150.52;100.00;63513.88;2037976;27;3559626;-75
2023/04/27 04:08:54;;;;;;;;;17.33;15.33;;;;;-150.52;100.00;63513.88;2027513;27;3551679;-75
2023/04/27 04:10:06;;;;;;;;;16.75;16.75;;;;;-150.52;100.00;63513.88;2051053;28;1824283;-74
2023/04/27 04:11:17;;;;;;;;;21.33;16.67;;;;;-150.52;100.00;63513.88;2000953;28;2827366;-75
2023/04/27 04:12:28;;;;;;;;;15.00;15.00;;;;;-150.52;100.00;63513.88;2026066;27;2813234;-74
2023/04/27 04:13:41;;;;;;;;;18.67;14.33;;;;;-150.52;100.00;63513.88;2026903;28;3546077;-75
2023/04/27 04:14:51;;;;;;;;;23.00;15.50;;;;;-150.52;100.00;63513.88;2017560;28;2815890;-75
2023/04/27 04:16:08;;;;;;;;;16.00;14.67;;;;;-150.52;100.00;63513.88;2041437;27;3545021;-75
2023/04/27 04:17:19;;;;;;;;;20.33;17.67;;;;;-150.52;100.00;63513.88;2031008;27;2824212;-74
2023/04/27 04:18:30;;;;;;;;;18.00;14.00;;;;;-150.52;100.00;63513.88;2023038;28;2811727;-74
2023/04/27 04:19:42;;;;;;;;;20.00;16.33;;;;;-150.52;100.00;63513.88;2008693;28;3541895;-74
2023/04/27 04:20:52;;;;;;;;;14.00;14.00;;;;;-150.52;100.00;63513.88;2040144;27;2790339;-74
2023/04/27 04:22:04;;;;;;;;;17.50;15.50;;;;;-150.52;100.00;63513.88;2041855;27;2811729;-74
2023/04/27 04:23:15;;;;;;;;;19.00;16.67;;;;;-150.52;100.00;63513.88;2016518;28;3559619;-75
2023/04/27 04:24:28;;;;;;;;;15.67;13.50;;;;;-150.52;100.00;63513.88;2050964;28;2805424;-75
2023/04/27 04:25:40;;;;;;;;;16.40;15.60;;;;;-150.52;100.00;63513.88;2023348;27;3535602;-74
2023/04/27 04:26:52;;;;;;;;;18.33;17.00;;;;;-150.52;100.00;63513.88;2049194;27;3556541;-75
2023/04/27 04:28:04;;;;;;;;;16.80;15.40;;;;;-150.52;100.00;63513.88;2044484;28;3537771;-75
2023/04/27 04:29:16;;;;;;;;;15.00;13.33;;;;;-150.52;100.00;63513.88;2037548;27;2809700;-74
2023/04/27 04:30:27;;;;;;;;;16.50;15.00;;;;;-150.52;100.00;63513.88;2031417;27;2813923;-75
2023/04/27 04:31:40;;;;;;;;;17.40;14.40;;;;;-150.52;100.00;63513.88;2029103;28;1826293;-75
2023/04/27 04:32:51;;;;;;;;;22.33;19.00;;;;;-150.52;100.00;63513.88;2027698;27;3562689;-74
2023/04/27 04:34:03;;;;;;;;;21.80;17.60;;;;;-150.52;100.00;63513.88;2047218;27;3563735;-74
2023/04/27 04:35:18;;;;;;;;;19.00;15.00;;;;;-150.52;100.00;63513.88;2038280;27;3550252;-75
2023/04/27 04:36:30;;;;;;;;;19.67;17.00;;;;;-150.52;100.00;63513.88;2029112;27;2819001;-75
2023/04/27 04:37:42;;;;;;;;;17.00;14.00;;;;;-150.52;100.00;63513.88;2031582;27;3541896;-74
2023/04/27 04:38:55;;;;;;;;;17.67;14.00;;;;;-150.52;100.00;63513.88;2045445;27;2827447;-74
2023/04/27 04:40:07;;;;;;;;;16.67;15.00;;;;;-150.52;100.00;63513.88;2024139;28;2811809;-75
2023/04/27 04:41:19;;;;;;;;;20.33;15.33;;;;;-150.52;100.00;63513.88;2025012;27;2823222;-75
2023/04/27 04:42:30;;;;;;;;;17.00;15.50;;;;;-150.52;100.00;63513.88;2033662;27;2811827;-75
2023/04/27 04:43:41;;;;;;;;;17.00;13.00;;;;;-150.52;100.00;63513.88;2032932;27;2820081;-74
2023/04/27 04:44:52;;;;;;;;;18.00;16.33;;;;;-150.52;100.00;63513.88;2008462;27;3550233;-75
2023/04/27 04:46:05;;;;;;;;;16.20;15.40;;;;;-150.52;100.00;63513.88;2053930;27;3542937;-75
2023/04/27 04:47:16;;;;;;;;;22.67;16.67;;;;;-150.52;100.00;63513.88;2030888;27;3560657;-74
2023/04/27 04:48:28;;;;;;;;;16.33;16.33;;;;;-150.52;100.00;63513.88;2042818;27;2810691;-75
2023/04/27 04:49:38;;;;;;;;;17.00;17.00;;;;;-150.52;100.00;63513.88;2034586;27;2825761;-74
2023/04/27 04:50:50;;;;;;;;;19.67;15.33;;;;;-150.52;100.00;63513.88;2022500;27;2816893;-74
2023/04/27 04:52:04;;;;;;;;;13.17;10.50;;;;;-150.52;100.00;63513.88;2061736;27;1825274;-75
2023/04/27 04:53:17;;;;;;;;;14.67;14.33;;;;;-150.52;100.00;63513.88;2033714;27;1829496;-74
2023/04/27 04:54:29;;;;;;;;;21.33;15.67;;;;;-150.52;100.00;63513.88;2009747;27;3558995;-74
2023/04/27 04:55:40;;;;;;;;;17.33;16.00;;;;;-150.52;100.00;63513.88;2033089;27;2824328;-75
2023/04/27 04:56:51;;;;;;;;;17.00;17.00;;;;;-150.52;100.00;63513.88;2032991;27;2813804;-75
2023/04/27 04:58:03;;;;;;;;;19.00;16.20;;;;;-150.52;100.00;63513.88;2029700;27;2816964;-75
2023/04/27 04:59:15;;;;;;;;;20.67;16.67;;;;;-150.52;100.00;63513.88;2031079;27;2824349;-75
2023/04/27 05:00:26;;;;;;;;;22.00;16.00;;;;;-150.52;100.00;63513.88;2023705;28;2825648;-74
2023/04/27 05:01:38;;;;;;;;;17.33;15.67;;;;;-150.52;100.00;63513.88;2024361;27;3552387;-74
2023/04/27 05:02:49;;;;;;;;;17.67;14.67;;;;;-150.52;100.00;63513.88;2048724;27;2815993;-75
2023/04/27 05:04:01;;;;;;;;;19.67;16.33;;;;;-150.52;100.00;63513.88;2031092;27;2815987;-74
2023/04/27 05:05:12;;;;;;;;;18.67;17.00;;;;;-150.52;100.00;63513.88;2022161;28;2810850;-75
2023/04/27 05:06:23;;;;;;;;;17.67;16.33;;;;;-150.52;100.00;63513.88;2016363;28;2817022;-74
2023/04/27 05:07:35;;;;;;;;;22.67;16.00;;;;;-150.52;100.00;63513.88;2031155;27;3561157;-74
2023/04/27 05:08:47;;;;;;;;;20.00;17.67;;;;;-150.52;100.00;63513.88;2044280;27;3552328;-74
2023/04/27 05:09:58;;;;;;;;;10.00;10.00;;;;;-150.52;100.00;63513.88;2048649;27;2785052;-74
2023/04/27 05:11:10;;;;;;;;;17.00;15.00;;;;;-150.52;100.00;63513.88;2049131;27;3553423;-74
2023/04/27 05:12:21;;;;;;;;;19.67;16.67;;;;;-150.52;100.00;63513.88;2030609;27;3551290;-74
2023/04/27 05:13:34;;;;;;;;;16.67;14.00;;;;;-150.52;100.00;63513.88;2044607;27;3543979;-75